createdAt,value
2016-09-01T00:01:36.435Z,0
2016-09-01T00:02:49.477Z,0
2016-09-01T00:05:34.844Z,0
2016-09-01T00:08:34.813Z,0
2016-09-01T00:09:37.669Z,0
2016-09-01T00:11:37.310Z,0
2016-09-01T00:12:34.764Z,0
2016-09-01T00:13:37.704Z,0
2016-09-01T00:14:34.629Z,0
2016-09-01T00:15:36.394Z,0
2016-09-01T00:16:33.124Z,0
2016-09-01T00:17:34.372Z,0
2016-09-01T00:19:38.228Z,0
2016-09-01T00:20:34.604Z,0
2016-09-01T00:21:34.242Z,0
2016-09-01T00:22:34.575Z,0
2016-09-01T00:23:34.626Z,0
2016-09-01T00:24:35.596Z,0
2016-09-01T00:25:35.418Z,0
2016-09-01T00:26:34.417Z,0
2016-09-01T00:27:37.204Z,0
2016-09-01T00:29:34.570Z,0
2016-09-01T00:31:34.321Z,0
2016-09-01T00:33:35.364Z,0
2016-09-01T00:34:34.915Z,0
2016-09-01T00:35:50.450Z,0
2016-09-01T00:36:34.077Z,0
2016-09-01T00:37:51.517Z,0
2016-09-01T00:40:36.365Z,0
2016-09-01T00:41:35.266Z,0
2016-09-01T00:44:35.044Z,0
2016-09-01T00:45:38.282Z,0
2016-09-01T00:46:40.031Z,0
2016-09-01T00:47:35.474Z,0
2016-09-01T00:48:35.536Z,0
2016-09-01T00:49:36.233Z,0
2016-09-01T00:50:46.676Z,0
2016-09-01T00:51:34.672Z,0
2016-09-01T00:52:37.339Z,0
2016-09-01T00:53:35.576Z,0
2016-09-01T00:54:53.290Z,0
2016-09-01T00:55:37.026Z,0
2016-09-01T00:56:35.995Z,0
2016-09-01T00:57:37.371Z,0
2016-09-01T00:58:35.732Z,0
2016-09-01T01:01:36.794Z,0
2016-09-01T01:02:51.778Z,0
2016-09-01T01:03:37.167Z,0
2016-09-01T01:08:36.154Z,0
2016-09-01T01:09:35.614Z,0
2016-09-01T01:10:35.693Z,0
2016-09-01T01:12:35.635Z,0
2016-09-01T01:13:39.271Z,0
2016-09-01T01:15:40.603Z,0
2016-09-01T01:18:36.147Z,0
2016-09-01T01:19:36.605Z,0
2016-09-01T01:20:37.211Z,0
2016-09-01T01:22:36.833Z,0
2016-09-01T01:26:38.111Z,0
2016-09-01T01:28:35.760Z,0
2016-09-01T01:30:35.363Z,0
2016-09-01T01:31:36.383Z,0
2016-09-01T01:32:35.245Z,0
2016-09-01T01:33:52.868Z,0
2016-09-01T01:34:34.268Z,0
2016-09-01T01:35:36.692Z,0
2016-09-01T01:37:40.002Z,0
2016-09-01T01:38:37.056Z,0
2016-09-01T01:42:34.728Z,0
2016-09-01T01:43:35.787Z,0
2016-09-01T01:46:36.323Z,0
2016-09-01T01:47:36.574Z,0
2016-09-01T01:48:35.198Z,0
2016-09-01T01:51:36.831Z,0
2016-09-01T01:52:40.643Z,0
2016-09-01T01:56:53.688Z,0
2016-09-01T01:57:36.318Z,0
2016-09-01T01:58:35.095Z,0
2016-09-01T01:59:37.814Z,0
2016-09-01T02:01:37.136Z,0
2016-09-01T02:02:36.113Z,0
2016-09-01T02:05:37.767Z,0
2016-09-01T02:09:36.931Z,0
2016-09-01T02:10:37.699Z,0
2016-09-01T02:13:40.679Z,0
2016-09-01T02:14:37.566Z,0
2016-09-01T02:15:38.197Z,0
2016-09-01T02:17:39.560Z,0
2016-09-01T02:18:36.722Z,0
2016-09-01T02:21:40.178Z,0
2016-09-01T02:22:36.394Z,0
2016-09-01T02:23:35.556Z,0
2016-09-01T02:24:37.736Z,0
2016-09-01T02:25:38.284Z,0
2016-09-01T02:26:36.360Z,0
2016-09-01T02:27:35.905Z,0
2016-09-01T02:28:36.659Z,0
2016-09-01T02:29:37.796Z,0
2016-09-01T02:30:39.247Z,0
2016-09-01T02:31:36.096Z,0
2016-09-01T02:32:37.784Z,0
2016-09-01T02:33:37.441Z,0
2016-09-01T02:35:38.258Z,0
2016-09-01T02:36:38.190Z,0
2016-09-01T02:38:36.382Z,0
2016-09-01T02:40:38.129Z,0
2016-09-01T02:41:35.956Z,0
2016-09-01T02:42:38.317Z,0
2016-09-01T02:43:37.340Z,0
2016-09-01T02:46:36.411Z,0
2016-09-01T02:48:37.078Z,0
2016-09-01T02:49:38.390Z,0
2016-09-01T02:50:37.236Z,0
2016-09-01T02:51:35.783Z,0
2016-09-01T02:53:39.067Z,0
2016-09-01T02:54:36.539Z,0
2016-09-01T02:55:39.207Z,0
2016-09-01T02:56:40.045Z,0
2016-09-01T02:57:39.158Z,0
2016-09-01T02:58:40.068Z,0
2016-09-01T03:00:39.130Z,0
2016-09-01T03:02:38.699Z,0
2016-09-01T03:03:36.960Z,0
2016-09-01T03:06:39.257Z,0
2016-09-01T03:08:38.363Z,0
2016-09-01T03:09:37.229Z,0
2016-09-01T03:10:39.740Z,0
2016-09-01T03:11:38.668Z,0
2016-09-01T03:12:38.932Z,0
2016-09-01T03:13:37.845Z,0
2016-09-01T03:15:41.804Z,0
2016-09-01T03:16:40.623Z,0
2016-09-01T03:18:54.928Z,0
2016-09-01T03:19:38.269Z,0
2016-09-01T03:20:39.022Z,0
2016-09-01T03:21:40.034Z,0
2016-09-01T03:22:41.154Z,0
2016-09-01T03:23:40.128Z,0
2016-09-01T03:24:37.295Z,0
2016-09-01T03:25:37.472Z,0
2016-09-01T03:29:39.589Z,0
2016-09-01T03:30:39.855Z,0
2016-09-01T03:31:39.067Z,0
2016-09-01T03:32:38.328Z,0
2016-09-01T03:33:36.974Z,0
2016-09-01T03:34:40.618Z,0
2016-09-01T03:35:40.038Z,0
2016-09-01T03:36:40.323Z,0
2016-09-01T03:38:37.199Z,0
2016-09-01T03:39:41.528Z,0
2016-09-01T03:40:39.169Z,0
2016-09-01T03:41:38.677Z,0
2016-09-01T03:43:41.751Z,0
2016-09-01T03:44:38.737Z,0
2016-09-01T03:47:38.265Z,0
2016-09-01T03:48:40.552Z,0
2016-09-01T03:49:38.063Z,0
2016-09-01T03:50:38.713Z,0
2016-09-01T03:51:40.424Z,0
2016-09-01T03:54:39.743Z,0
2016-09-01T03:55:40.809Z,0
2016-09-01T03:56:38.559Z,0
2016-09-01T03:57:40.775Z,0
2016-09-01T03:58:38.716Z,0
2016-09-01T04:00:37.901Z,0
2016-09-01T04:01:38.956Z,0
2016-09-01T04:02:40.552Z,0
2016-09-01T04:03:39.888Z,0
2016-09-01T04:04:40.400Z,0
2016-09-01T04:06:39.873Z,0
2016-09-01T04:07:38.982Z,0
2016-09-01T04:08:37.437Z,0
2016-09-01T04:09:42.211Z,0
2016-09-01T04:10:41.224Z,0
2016-09-01T04:12:41.512Z,0
2016-09-01T04:14:41.615Z,0
2016-09-01T04:15:37.335Z,0
2016-09-01T04:16:43.851Z,0
2016-09-01T04:17:38.070Z,0
2016-09-01T04:18:41.778Z,0
2016-09-01T04:20:40.831Z,0
2016-09-01T04:21:40.690Z,5
2016-09-01T04:22:42.050Z,5
2016-09-01T04:25:41.274Z,5
2016-09-01T04:26:39.099Z,5
2016-09-01T04:27:40.878Z,10
2016-09-01T04:28:41.981Z,10
2016-09-01T04:30:40.444Z,10
2016-09-01T04:31:39.441Z,15
2016-09-01T04:33:39.659Z,15
2016-09-01T04:34:39.382Z,15
2016-09-01T04:35:42.676Z,20
2016-09-01T04:36:40.158Z,20
2016-09-01T04:37:42.853Z,25
2016-09-01T04:39:38.823Z,25
2016-09-01T04:40:39.744Z,30
2016-09-01T04:41:39.923Z,30
2016-09-01T04:43:42.340Z,35
2016-09-01T04:44:39.599Z,40
2016-09-01T04:45:42.077Z,40
2016-09-01T04:46:42.758Z,45
2016-09-01T04:48:40.260Z,50
2016-09-01T04:49:40.241Z,55
2016-09-01T04:51:43.535Z,60
2016-09-01T04:52:43.499Z,65
2016-09-01T04:53:40.269Z,65
2016-09-01T04:54:42.111Z,70
2016-09-01T04:55:40.048Z,70
2016-09-01T04:58:40.222Z,80
2016-09-01T05:01:44.681Z,90
2016-09-01T05:02:41.398Z,95
2016-09-01T05:03:40.338Z,100
2016-09-01T05:04:42.096Z,105
2016-09-01T05:05:58.354Z,110
2016-09-01T05:07:40.637Z,115
2016-09-01T05:08:40.631Z,120
2016-09-01T05:09:40.122Z,120
2016-09-01T05:10:43.828Z,125
2016-09-01T05:11:40.961Z,130
2016-09-01T05:12:41.046Z,130
2016-09-01T05:13:42.346Z,135
2016-09-01T05:14:40.642Z,140
2016-09-01T05:15:43.008Z,145
2016-09-01T05:16:40.565Z,150
2016-09-01T05:17:40.342Z,155
2016-09-01T05:19:42.875Z,165
2016-09-01T05:22:43.541Z,180
2016-09-01T05:23:40.586Z,185
2016-09-01T05:24:43.185Z,195
2016-09-01T05:26:39.761Z,205
2016-09-01T05:27:43.429Z,210
2016-09-01T05:28:43.573Z,215
2016-09-01T05:29:42.909Z,225
2016-09-01T05:30:42.553Z,235
2016-09-01T05:31:41.223Z,235
2016-09-01T05:33:41.707Z,240
2016-09-01T05:34:40.527Z,245
2016-09-01T05:35:40.294Z,250
2016-09-01T05:36:42.063Z,255
2016-09-01T05:37:41.132Z,255
2016-09-01T05:38:40.963Z,260
2016-09-01T05:39:41.642Z,265
2016-09-01T05:40:42.874Z,270
2016-09-01T05:43:43.560Z,285
2016-09-01T05:45:41.656Z,295
2016-09-01T05:47:41.614Z,310
2016-09-01T05:48:42.097Z,315
2016-09-01T05:50:40.683Z,325
2016-09-01T05:55:42.039Z,360
2016-09-01T05:56:42.343Z,375
2016-09-01T05:57:41.953Z,390
2016-09-01T05:59:41.573Z,395
2016-09-01T06:00:44.035Z,395
2016-09-01T06:01:44.538Z,410
2016-09-01T06:03:42.147Z,435
2016-09-01T06:04:41.991Z,440
2016-09-01T06:06:43.548Z,460
2016-09-01T06:08:42.018Z,475
2016-09-01T06:09:44.064Z,480
2016-09-01T06:11:59.870Z,490
2016-09-01T06:12:44.217Z,490
2016-09-01T06:13:42.707Z,490
2016-09-01T06:14:42.672Z,495
2016-09-01T06:15:45.876Z,505
2016-09-01T06:17:46.033Z,535
2016-09-01T06:18:45.022Z,550
2016-09-01T06:20:44.855Z,570
2016-09-01T06:21:45.259Z,580
2016-09-01T06:22:45.516Z,580
2016-09-01T06:23:43.001Z,585
2016-09-01T06:25:44.930Z,600
2016-09-01T06:26:45.189Z,620
2016-09-01T06:29:43.940Z,660
2016-09-01T06:31:41.928Z,650
2016-09-01T06:32:43.121Z,635
2016-09-01T06:33:41.845Z,635
2016-09-01T06:34:43.137Z,625
2016-09-01T06:35:43.098Z,635
2016-09-01T06:37:45.107Z,710
2016-09-01T06:38:45.318Z,695
2016-09-01T06:39:46.778Z,680
2016-09-01T06:40:46.034Z,680
2016-09-01T06:44:46.200Z,695
2016-09-01T06:45:45.887Z,705
2016-09-01T06:47:45.503Z,700
2016-09-01T06:50:42.635Z,735
2016-09-01T06:51:45.262Z,745
2016-09-01T06:52:45.976Z,755
2016-09-01T06:55:43.162Z,860
2016-09-01T06:57:44.183Z,945
2016-09-01T06:58:43.445Z,965
2016-09-01T06:59:42.650Z,965
2016-09-01T07:00:43.365Z,910
2016-09-01T07:01:43.402Z,835
2016-09-01T07:02:42.754Z,805
2016-09-01T07:03:45.575Z,655
2016-09-01T07:05:43.984Z,640
2016-09-01T07:06:42.646Z,665
2016-09-01T07:07:42.695Z,790
2016-09-01T07:08:43.916Z,1050
2016-09-01T07:09:46.165Z,965
2016-09-01T07:10:45.366Z,1065
2016-09-01T07:11:47.547Z,1065
2016-09-01T07:13:44.270Z,1180
2016-09-01T07:14:44.208Z,1145
2016-09-01T07:15:44.350Z,1155
2016-09-01T07:16:44.906Z,1185
2016-09-01T07:17:43.051Z,1140
2016-09-01T07:18:43.471Z,1145
2016-09-01T07:19:44.496Z,1170
2016-09-01T07:21:44.240Z,1200
2016-09-01T07:22:45.148Z,1185
2016-09-01T07:24:43.922Z,1235
2016-09-01T07:26:44.914Z,1300
2016-09-01T07:27:42.876Z,1295
2016-09-01T07:28:44.919Z,1285
2016-09-01T07:29:44.855Z,1300
2016-09-01T07:30:43.688Z,1290
2016-09-01T07:31:43.678Z,1245
2016-09-01T07:32:44.919Z,1290
2016-09-01T07:33:45.109Z,1350
2016-09-01T07:34:44.446Z,1370
2016-09-01T07:36:44.786Z,1370
2016-09-01T07:37:44.218Z,1385
2016-09-01T07:39:47.253Z,1450
2016-09-01T07:40:45.184Z,1465
2016-09-01T07:41:47.765Z,1405
2016-09-01T07:43:44.178Z,1500
2016-09-01T07:44:44.602Z,1505
2016-09-01T07:45:44.162Z,1525
2016-09-01T07:46:43.717Z,1480
2016-09-01T07:47:45.315Z,1525
2016-09-01T07:48:43.070Z,1560
2016-09-01T07:49:46.221Z,1515
2016-09-01T07:50:48.895Z,1550
2016-09-01T07:51:44.686Z,1585
2016-09-01T07:52:44.362Z,1510
2016-09-01T07:53:45.566Z,1415
